createdAt,value
2022-11-10T00:00:00.586Z,135.00
2022-11-10T00:03:21.899Z,147.03
2022-11-10T00:06:42.785Z,149.60
2022-11-10T00:10:04.408Z,142.48
2022-11-10T00:13:26.343Z,133.90
2022-11-10T00:17:02.583Z,134.63
2022-11-10T00:20:23.334Z,133.50
2022-11-10T00:23:45.216Z,123.05
2022-11-10T00:27:06.415Z,133.57
2022-11-10T00:30:27.208Z,119.20
2022-11-10T00:33:47.866Z,128.85
2022-11-10T00:37:08.685Z,108.17
2022-11-10T00:40:29.418Z,109.18
2022-11-10T00:43:49.925Z,123.85
2022-11-10T00:47:10.363Z,124.70
2022-11-10T00:50:30.960Z,127.85
2022-11-10T00:53:51.893Z,121.37
2022-11-10T00:57:12.397Z,120.10
2022-11-10T01:00:33.087Z,123.32
2022-11-10T01:03:54.319Z,115.35
2022-11-10T01:07:14.739Z,127.22
2022-11-10T01:10:35.702Z,133.73
2022-11-10T01:13:56.646Z,121.90
2022-11-10T01:17:17.232Z,130.65
2022-11-10T01:20:38.102Z,127.03
2022-11-10T01:23:58.555Z,127.60
2022-11-10T01:27:19.556Z,122.33
2022-11-10T01:30:40.339Z,124.75
2022-11-10T01:34:00.674Z,127.90
2022-11-10T01:37:21.308Z,128.77
2022-11-10T01:40:43.077Z,146.73
2022-11-10T01:44:14.689Z,143.53
2022-11-10T01:47:35.190Z,160.65
2022-11-10T01:50:58.263Z,177.65
2022-11-10T01:54:21.898Z,159.50
2022-11-10T01:57:42.582Z,171.63
2022-11-10T02:01:03.568Z,196.60
2022-11-10T02:04:24.668Z,225.73
2022-11-10T02:07:46.016Z,240.93
2022-11-10T02:11:06.844Z,250.95
2022-11-10T02:14:27.295Z,241.98
2022-11-10T02:17:48.078Z,211.10
2022-11-10T02:21:09.207Z,228.75
2022-11-10T02:24:29.763Z,224.30
2022-11-10T02:27:50.269Z,242.18
2022-11-10T02:31:11.040Z,233.18
2022-11-10T02:34:31.909Z,217.70
2022-11-10T02:37:52.352Z,203.38
2022-11-10T02:41:13.069Z,201.38
2022-11-10T02:44:33.519Z,202.95
2022-11-10T02:47:54.144Z,210.63
2022-11-10T02:51:14.696Z,211.17
2022-11-10T02:54:35.299Z,234.05
2022-11-10T02:57:55.857Z,194.27
2022-11-10T03:01:16.330Z,191.73
2022-11-10T03:04:36.917Z,181.02
2022-11-10T03:07:58.696Z,185.90
2022-11-10T03:11:19.487Z,188.75
2022-11-10T03:14:40.316Z,209.73
2022-11-10T03:18:03.841Z,197.95
2022-11-10T03:21:24.315Z,211.05
2022-11-10T03:24:45.082Z,210.97
2022-11-10T03:28:05.515Z,211.77
2022-11-10T03:31:26.223Z,223.00
2022-11-10T03:34:46.751Z,234.65
2022-11-10T03:38:07.328Z,253.40
2022-11-10T03:41:28.160Z,244.37
2022-11-10T03:44:49.029Z,242.23
2022-11-10T03:48:09.501Z,215.63
2022-11-10T03:51:29.934Z,245.23
2022-11-10T03:54:50.319Z,256.50
2022-11-10T03:58:10.700Z,256.43
2022-11-10T04:01:31.301Z,257.30
2022-11-10T04:05:10.953Z,238.75
2022-11-10T04:08:49.853Z,234.45
2022-11-10T04:12:29.154Z,246.10
2022-11-10T04:15:49.883Z,239.97
2022-11-10T04:19:10.389Z,265.20
2022-11-10T04:23:06.531Z,254.57
2022-11-10T04:26:30.044Z,216.07
2022-11-10T04:29:50.482Z,215.55
2022-11-10T04:33:11.122Z,210.10
2022-11-10T04:36:32.985Z,183.13
2022-11-10T04:39:53.691Z,174.43
2022-11-10T04:43:14.285Z,182.60
2022-11-10T04:46:39.020Z,171.30
2022-11-10T04:49:59.841Z,166.17
2022-11-10T04:53:20.739Z,155.10
2022-11-10T04:56:41.816Z,184.55
2022-11-10T05:00:02.543Z,176.20
2022-11-10T05:03:24.145Z,167.68
2022-11-10T05:06:45.053Z,161.27
2022-11-10T05:10:06.151Z,149.93
2022-11-10T05:13:27.009Z,135.18
2022-11-10T05:16:47.789Z,132.05
2022-11-10T05:20:09.247Z,122.45
2022-11-10T05:23:38.811Z,106.23
2022-11-10T05:26:59.645Z,107.78
2022-11-10T05:30:20.196Z,98.53
2022-11-10T05:33:40.907Z,90.55
2022-11-10T05:37:01.366Z,103.30
2022-11-10T05:40:21.802Z,98.53
2022-11-10T05:43:42.341Z,116.75
2022-11-10T05:47:03.061Z,101.15
2022-11-10T05:50:24.244Z,108.22
2022-11-10T05:53:44.946Z,99.47
2022-11-10T05:57:05.656Z,87.10
2022-11-10T06:00:28.389Z,97.47
2022-11-10T06:03:57.750Z,88.80
2022-11-10T06:07:18.817Z,89.72
2022-11-10T06:10:39.867Z,82.80
2022-11-10T06:14:01.243Z,92.50
2022-11-10T06:17:21.895Z,93.68
2022-11-10T06:20:42.485Z,98.13
2022-11-10T06:24:05.444Z,90.60
2022-11-10T06:27:26.381Z,86.07
2022-11-10T06:30:47.770Z,81.33
2022-11-10T06:34:09.908Z,73.05
2022-11-10T06:37:30.444Z,75.85
2022-11-10T06:40:51.812Z,75.93
2022-11-10T06:44:12.710Z,87.60
2022-11-10T06:47:37.563Z,74.13
2022-11-10T06:51:07.484Z,67.60
2022-11-10T06:54:33.460Z,64.85
2022-11-10T06:58:04.767Z,64.88
2022-11-10T07:01:30.824Z,62.83
2022-11-10T07:05:01.315Z,57.80
2022-11-10T07:08:22.313Z,59.88
2022-11-10T07:11:43.108Z,61.17
2022-11-10T07:15:07.783Z,53.22
2022-11-10T07:18:28.507Z,56.25
2022-11-10T07:21:49.377Z,54.10
2022-11-10T07:25:11.799Z,50.92
2022-11-10T07:28:32.730Z,45.33
2022-11-10T07:32:01.437Z,50.13
2022-11-10T07:35:29.859Z,48.72
2022-11-10T07:38:51.000Z,48.03
2022-11-10T07:42:15.919Z,48.42
2022-11-10T07:45:39.766Z,50.72
2022-11-10T07:49:05.830Z,41.05
2022-11-10T07:52:31.818Z,42.20
2022-11-10T07:56:02.630Z,44.73
2022-11-10T08:03:06.189Z,42.55
2022-11-10T08:06:29.259Z,41.15
2022-11-10T08:09:53.803Z,39.45
2022-11-10T08:13:17.844Z,41.80
2022-11-10T08:16:42.983Z,36.65
2022-11-10T08:20:12.936Z,36.10
2022-11-10T08:23:36.107Z,36.88
2022-11-10T08:27:12.417Z,37.42
2022-11-10T08:30:39.333Z,39.23
2022-11-10T08:34:03.645Z,40.10
2022-11-10T08:37:27.390Z,39.88
2022-11-10T08:40:50.009Z,39.83
2022-11-10T08:44:11.723Z,37.70
2022-11-10T08:47:33.158Z,41.47
2022-11-10T08:51:07.746Z,42.92
2022-11-10T08:54:47.129Z,42.80
2022-11-10T08:58:08.877Z,42.10
2022-11-10T09:01:32.931Z,37.78
2022-11-10T09:04:53.639Z,36.73
2022-11-10T09:08:14.718Z,43.67
2022-11-10T09:11:44.605Z,45.05
2022-11-10T09:15:05.957Z,41.30
2022-11-10T09:18:27.534Z,41.70
2022-11-10T09:21:48.774Z,39.70
2022-11-10T09:25:09.857Z,42.22
2022-11-10T09:28:36.923Z,41.00
2022-11-10T09:32:01.653Z,37.65
2022-11-10T09:35:24.674Z,40.95
2022-11-10T09:38:45.618Z,39.93
2022-11-10T09:42:20.827Z,36.28
2022-11-10T09:45:43.583Z,38.08
2022-11-10T09:49:48.320Z,39.70
2022-11-10T09:53:16.165Z,37.20
2022-11-10T09:56:37.848Z,36.33
2022-11-10T09:59:59.560Z,41.40
2022-11-10T10:03:24.666Z,38.03
2022-11-10T10:07:10.198Z,36.58
2022-11-10T10:10:46.632Z,37.83
2022-11-10T10:14:09.816Z,36.07
2022-11-10T10:17:49.610Z,35.38
2022-11-10T10:21:29.434Z,38.67
2022-11-10T10:24:53.279Z,37.35
2022-11-10T10:28:24.304Z,40.88
2022-11-10T10:31:47.873Z,42.03
2022-11-10T10:35:28.078Z,39.97
2022-11-10T10:38:50.827Z,41.05
2022-11-10T10:42:31.901Z,39.65
2022-11-10T10:46:06.795Z,34.33
2022-11-10T10:49:43.199Z,34.63
2022-11-10T10:53:07.904Z,35.58
2022-11-10T10:56:31.562Z,39.60
2022-11-10T11:00:10.565Z,42.10
2022-11-10T11:03:45.010Z,38.78
2022-11-10T11:07:25.791Z,41.27
2022-11-10T11:10:47.608Z,41.53
2022-11-10T11:14:35.830Z,45.03
2022-11-10T11:18:02.645Z,42.20
2022-11-10T11:21:37.857Z,42.72
2022-11-10T11:25:25.627Z,40.13
2022-11-10T11:29:11.066Z,36.47
2022-11-10T11:32:56.828Z,40.70
2022-11-10T11:36:23.603Z,39.28
2022-11-10T11:39:55.696Z,40.30
2022-11-10T11:43:49.287Z,41.07
2022-11-10T11:47:22.848Z,42.03
2022-11-10T11:51:05.558Z,41.80
2022-11-10T11:54:36.810Z,43.25
2022-11-10T11:58:06.862Z,42.13
2022-11-10T12:01:45.718Z,43.17
2022-11-10T12:05:10.358Z,43.20
2022-11-10T12:08:40.783Z,47.95
2022-11-10T12:12:07.758Z,48.20
2022-11-10T12:15:35.737Z,51.20
2022-11-10T12:19:09.713Z,48.27
2022-11-10T12:22:42.466Z,46.45
2022-11-10T12:26:13.370Z,47.70
2022-11-10T12:29:37.528Z,52.40
2022-11-10T12:33:03.809Z,43.33
2022-11-10T12:36:27.272Z,45.80
2022-11-10T12:39:58.645Z,48.63
2022-11-10T12:44:23.646Z,46.33
2022-11-10T12:47:47.288Z,45.60
2022-11-10T12:51:31.499Z,50.47
2022-11-10T12:55:01.084Z,50.20
2022-11-10T12:58:34.661Z,48.75
2022-11-10T13:02:02.479Z,45.60
2022-11-10T13:05:32.097Z,50.45
2022-11-10T13:08:56.236Z,46.33
2022-11-10T13:12:21.409Z,46.87
2022-11-10T13:15:44.859Z,40.88
2022-11-10T13:19:13.058Z,47.15
2022-11-10T13:22:42.940Z,49.00
2022-11-10T13:26:06.851Z,44.97
2022-11-10T13:29:42.946Z,45.53
2022-11-10T13:33:36.357Z,51.15
2022-11-10T13:36:57.632Z,49.47
2022-11-10T13:40:23.385Z,45.67
2022-11-10T13:43:48.587Z,44.45
2022-11-10T13:47:09.411Z,50.33
2022-11-10T13:50:39.942Z,45.83
2022-11-10T13:54:12.833Z,46.63
2022-11-10T13:57:41.352Z,45.92
2022-11-10T14:01:17.678Z,45.42
2022-11-10T14:04:40.617Z,46.13
2022-11-10T14:08:01.540Z,47.45
2022-11-10T14:11:25.735Z,53.28
2022-11-10T14:14:50.499Z,48.88
2022-11-10T14:18:22.755Z,47.85
2022-11-10T14:21:57.885Z,48.90
2022-11-10T14:25:36.360Z,51.92
2022-11-10T14:28:57.556Z,54.53
2022-11-10T14:32:22.498Z,51.42
2022-11-10T14:35:51.194Z,52.85
2022-11-10T14:39:14.398Z,48.20
2022-11-10T14:42:35.206Z,52.80
2022-11-10T14:45:56.396Z,50.58
2022-11-10T14:49:24.061Z,48.55
2022-11-10T14:52:46.963Z,51.83
2022-11-10T14:56:14.660Z,53.27
2022-11-10T14:59:37.536Z,57.30
2022-11-10T15:02:59.015Z,58.38
2022-11-10T15:06:21.678Z,56.20
2022-11-10T15:10:00.881Z,55.20
2022-11-10T15:13:27.937Z,58.57
2022-11-10T15:16:59.703Z,52.47
2022-11-10T15:20:34.879Z,48.00
2022-11-10T15:23:56.740Z,52.55
2022-11-10T15:27:25.421Z,48.55
2022-11-10T15:30:57.691Z,48.60
2022-11-10T15:34:32.156Z,52.72
2022-11-10T15:38:04.643Z,50.97
2022-11-10T15:41:27.484Z,50.92
2022-11-10T15:44:48.781Z,54.97
2022-11-10T15:48:13.836Z,53.30
2022-11-10T15:51:34.299Z,54.28
2022-11-10T15:54:54.718Z,53.40
2022-11-10T15:58:20.019Z,55.20
2022-11-10T16:01:41.002Z,49.15
2022-11-10T16:05:01.648Z,54.37
2022-11-10T16:08:23.621Z,49.83
2022-11-10T16:11:44.870Z,53.40
2022-11-10T16:15:06.453Z,48.33
2022-11-10T16:18:28.852Z,50.00
2022-11-10T16:21:49.715Z,49.67
2022-11-10T16:25:18.871Z,61.63
2022-11-10T16:28:44.292Z,55.63
2022-11-10T16:32:05.200Z,57.35
2022-11-10T16:35:26.094Z,50.30
2022-11-10T16:38:46.632Z,56.97
2022-11-10T16:42:07.324Z,53.13
2022-11-10T16:45:30.267Z,55.40
2022-11-10T16:48:52.737Z,56.72
2022-11-10T16:52:16.873Z,51.13
2022-11-10T16:55:37.257Z,53.93
2022-11-10T16:58:57.913Z,56.45
2022-11-10T17:02:25.497Z,46.40
2022-11-10T17:05:46.544Z,54.75
2022-11-10T17:09:09.207Z,54.78
2022-11-10T17:12:30.004Z,55.63
2022-11-10T17:15:52.465Z,52.17
2022-11-10T17:19:24.020Z,57.35
2022-11-10T17:22:45.272Z,52.53
2022-11-10T17:26:08.498Z,53.70
2022-11-10T17:29:29.312Z,50.50
2022-11-10T17:33:04.642Z,52.65
2022-11-10T17:36:27.707Z,53.63
2022-11-10T17:39:48.555Z,50.10
2022-11-10T17:43:10.390Z,49.83
2022-11-10T17:46:31.490Z,51.33
2022-11-10T17:49:52.357Z,54.00
2022-11-10T17:53:23.827Z,53.88
2022-11-10T17:56:44.673Z,56.13
2022-11-10T18:00:05.471Z,52.42
2022-11-10T18:03:26.758Z,45.23
2022-11-10T18:06:47.743Z,50.15
2022-11-10T18:10:12.944Z,49.55
2022-11-10T18:13:33.701Z,46.22
2022-11-10T18:16:54.748Z,44.65
2022-11-10T18:20:16.005Z,54.87
2022-11-10T18:23:36.795Z,52.20
2022-11-10T18:26:57.519Z,52.38
2022-11-10T18:30:19.385Z,51.85
2022-11-10T18:34:38.147Z,51.95
2022-11-10T18:37:59.046Z,50.00
2022-11-10T18:41:38.367Z,48.25
2022-11-10T18:44:59.203Z,50.13
2022-11-10T18:48:22.224Z,49.72
2022-11-10T18:51:46.508Z,49.50
2022-11-10T18:55:08.203Z,50.80
2022-11-10T18:58:29.568Z,49.58
2022-11-10T19:01:50.991Z,42.72
2022-11-10T19:05:11.986Z,48.42
2022-11-10T19:08:33.093Z,43.22
2022-11-10T19:11:54.140Z,48.70
2022-11-10T19:15:15.007Z,46.60
2022-11-10T19:18:36.561Z,46.75
2022-11-10T19:21:57.450Z,44.90
2022-11-10T19:25:17.928Z,49.17
2022-11-10T19:28:38.673Z,44.63
2022-11-10T19:31:59.270Z,45.08
2022-11-10T19:35:20.126Z,50.03
2022-11-10T19:38:41.271Z,45.42
2022-11-10T19:42:01.845Z,44.92
2022-11-10T19:45:22.540Z,46.00
2022-11-10T19:48:43.985Z,42.75
2022-11-10T19:52:05.034Z,40.85
2022-11-10T19:55:25.953Z,38.85
2022-11-10T19:58:47.727Z,54.72
2022-11-10T20:02:12.230Z,57.53
2022-11-10T20:05:34.225Z,65.78
2022-11-10T20:08:55.112Z,70.60
2022-11-10T20:12:16.137Z,66.45
2022-11-10T20:15:40.701Z,69.35
2022-11-10T20:19:01.348Z,55.57
2022-11-10T20:22:22.202Z,67.95
2022-11-10T20:25:43.936Z,55.22
2022-11-10T20:29:04.573Z,52.63
2022-11-10T20:32:26.474Z,46.85
2022-11-10T20:35:47.080Z,53.20
2022-11-10T20:39:07.986Z,50.05
2022-11-10T20:42:28.631Z,51.15
2022-11-10T20:45:51.955Z,45.53
2022-11-10T20:49:12.696Z,44.25
2022-11-10T20:52:34.235Z,84.33
2022-11-10T20:55:58.647Z,55.55
2022-11-10T20:59:19.687Z,55.65
2022-11-10T21:02:40.506Z,52.58
2022-11-10T21:06:01.542Z,60.53
2022-11-10T21:09:22.079Z,69.93
2022-11-10T21:12:52.346Z,73.25
2022-11-10T21:16:13.066Z,75.70
2022-11-10T21:19:34.282Z,73.13
2022-11-10T21:23:02.066Z,69.50
2022-11-10T21:26:23.988Z,70.20
2022-11-10T21:29:44.929Z,54.65
2022-11-10T21:33:06.948Z,51.03
2022-11-10T21:36:29.455Z,49.88
2022-11-10T21:39:50.535Z,51.78
2022-11-10T21:43:11.321Z,50.77
2022-11-10T21:46:32.015Z,50.55
2022-11-10T21:49:52.598Z,46.40
2022-11-10T21:53:12.979Z,56.20
2022-11-10T21:56:33.344Z,54.22
2022-11-10T21:59:53.789Z,43.57
2022-11-10T22:03:14.199Z,42.42
2022-11-10T22:06:53.254Z,54.00
2022-11-10T22:10:32.375Z,49.92
2022-11-10T22:14:11.917Z,50.45
2022-11-10T22:17:51.675Z,76.17
2022-11-10T22:21:12.587Z,61.72
2022-11-10T22:24:33.842Z,69.30
2022-11-10T22:27:54.588Z,66.60
2022-11-10T22:31:15.100Z,56.03
2022-11-10T22:34:35.547Z,59.97
2022-11-10T22:37:56.276Z,57.00
2022-11-10T22:41:36.128Z,64.30
2022-11-10T22:44:56.976Z,57.38
2022-11-10T22:48:26.676Z,60.85
2022-11-10T22:51:48.179Z,43.13
2022-11-10T22:55:08.906Z,48.33
2022-11-10T22:58:29.749Z,37.30
2022-11-10T23:01:50.594Z,37.60
2022-11-10T23:05:11.688Z,40.15
2022-11-10T23:08:32.656Z,41.27
2022-11-10T23:11:53.121Z,37.90
2022-11-10T23:15:13.772Z,41.58
2022-11-10T23:18:34.588Z,49.15
2022-11-10T23:21:55.518Z,52.75
2022-11-10T23:25:16.521Z,46.57
2022-11-10T23:28:37.998Z,43.78
2022-11-10T23:31:59.014Z,43.83
2022-11-10T23:35:19.961Z,34.70
2022-11-10T23:38:40.834Z,48.72
2022-11-10T23:42:01.358Z,56.13
2022-11-10T23:45:21.932Z,51.50
2022-11-10T23:48:42.516Z,52.45
2022-11-10T23:52:03.248Z,42.22
2022-11-10T23:55:24.229Z,46.80
2022-11-10T23:58:44.941Z,60.47
